sensor_id;sensor_type;location;lat;lon;timestamp;temperature;humidity
73149;SHT30;61346;48.930;2.266;2022-10-26T07:36:37;16.88;75.57
73149;SHT30;61346;48.930;2.266;2022-10-26T07:39:05;16.92;75.61
73149;SHT30;61346;48.930;2.266;2022-10-26T07:41:31;16.96;75.63
73149;SHT30;61346;48.930;2.266;2022-10-26T07:43:57;17.00;75.60
73149;SHT30;61346;48.930;2.266;2022-10-26T07:46:23;17.05;75.63
73149;SHT30;61346;48.930;2.266;2022-10-26T07:48:56;17.08;75.64
73149;SHT30;61346;48.930;2.266;2022-10-26T07:51:21;17.12;75.65
73149;SHT30;61346;48.930;2.266;2022-10-26T07:53:49;17.18;75.64
73149;SHT30;61346;48.930;2.266;2022-10-26T07:56:19;17.23;75.64
73149;SHT30;61346;48.930;2.266;2022-10-26T07:58:46;17.28;75.65
73149;SHT30;61346;48.930;2.266;2022-10-26T08:01:14;17.35;75.59
73149;SHT30;61346;48.930;2.266;2022-10-26T08:03:42;17.39;75.57
73149;SHT30;61346;48.930;2.266;2022-10-26T08:06:08;17.45;75.57
73149;SHT30;61346;48.930;2.266;2022-10-26T08:08:34;17.49;75.53
73149;SHT30;61346;48.930;2.266;2022-10-26T08:11:00;17.57;75.52
73149;SHT30;61346;48.930;2.266;2022-10-26T08:13:26;17.62;75.46
73149;SHT30;61346;48.930;2.266;2022-10-26T08:16:03;17.71;75.44
73149;SHT30;61346;48.930;2.266;2022-10-26T08:18:29;17.76;75.39
73149;SHT30;61346;48.930;2.266;2022-10-26T08:20:54;17.81;75.33
73149;SHT30;61346;48.930;2.266;2022-10-26T08:23:25;17.90;75.28
73149;SHT30;61346;48.930;2.266;2022-10-26T08:26:39;18.00;75.23
73149;SHT30;61346;48.930;2.266;2022-10-26T08:29:05;18.02;75.21
73149;SHT30;61346;48.930;2.266;2022-10-26T08:31:31;18.11;75.14
73149;SHT30;61346;48.930;2.266;2022-10-26T08:33:57;18.15;75.04
73149;SHT30;61346;48.930;2.266;2022-10-26T08:36:25;18.19;74.98
73149;SHT30;61346;48.930;2.266;2022-10-26T08:38:54;18.26;74.93
73149;SHT30;61346;48.930;2.266;2022-10-26T08:41:37;18.32;74.88
73149;SHT30;61346;48.930;2.266;2022-10-26T08:46:46;18.45;74.81
73149;SHT30;61346;48.930;2.266;2022-10-26T08:49:25;18.52;74.77
73149;SHT30;61346;48.930;2.266;2022-10-26T08:51:55;18.57;74.72
73149;SHT30;61346;48.930;2.266;2022-10-26T08:54:38;18.63;74.63
73149;SHT30;61346;48.930;2.266;2022-10-26T08:57:18;18.71;74.59
73149;SHT30;61346;48.930;2.266;2022-10-26T09:00:30;18.79;74.49
73149;SHT30;61346;48.930;2.266;2022-10-26T09:02:52;18.84;74.45
73149;SHT30;61346;48.930;2.266;2022-10-26T09:05:26;18.91;74.34
73149;SHT30;61346;48.930;2.266;2022-10-26T09:08:08;18.98;74.25
73149;SHT30;61346;48.930;2.266;2022-10-26T09:10:50;19.04;74.13
73149;SHT30;61346;48.930;2.266;2022-10-26T09:21:34;19.36;73.73
73149;SHT30;61346;48.930;2.266;2022-10-26T09:24:11;19.42;73.65
73149;SHT30;61346;48.930;2.266;2022-10-26T09:29:29;19.52;73.46
73149;SHT30;61346;48.930;2.266;2022-10-26T09:32:05;19.61;73.44
73149;SHT30;61346;48.930;2.266;2022-10-26T09:34:45;19.69;73.32
73149;SHT30;61346;48.930;2.266;2022-10-26T09:37:34;19.76;73.18
73149;SHT30;61346;48.930;2.266;2022-10-26T09:52:31;20.28;72.03
73149;SHT30;61346;48.930;2.266;2022-10-26T09:54:59;20.34;71.89
73149;SHT30;61346;48.930;2.266;2022-10-26T09:57:25;20.41;71.73
73149;SHT30;61346;48.930;2.266;2022-10-26T09:59:51;20.48;71.58
73149;SHT30;61346;48.930;2.266;2022-10-26T10:02:43;20.57;71.32
73149;SHT30;61346;48.930;2.266;2022-10-26T10:05:34;20.65;71.06
73149;SHT30;61346;48.930;2.266;2022-10-26T10:12:04;20.83;70.76
73149;SHT30;61346;48.930;2.266;2022-10-26T10:14:57;20.94;70.68
73149;SHT30;61346;48.930;2.266;2022-10-26T10:17:23;21.03;70.58
73149;SHT30;61346;48.930;2.266;2022-10-26T10:19:50;21.08;70.46
73149;SHT30;61346;48.930;2.266;2022-10-26T10:22:25;21.15;70.14
73149;SHT30;61346;48.930;2.266;2022-10-26T10:25:02;21.21;69.99
73149;SHT30;61346;48.930;2.266;2022-10-26T10:27:29;21.28;69.83
73149;SHT30;61346;48.930;2.266;2022-10-26T10:30:42;21.37;69.60
73149;SHT30;61346;48.930;2.266;2022-10-26T10:33:10;21.41;69.50
73149;SHT30;61346;48.930;2.266;2022-10-26T10:35:50;21.51;69.30
73149;SHT30;61346;48.930;2.266;2022-10-26T10:38:21;21.58;69.34
73149;SHT30;61346;48.930;2.266;2022-10-26T10:40:57;21.68;69.21
73149;SHT30;61346;48.930;2.266;2022-10-26T10:43:33;21.71;68.87
73149;SHT30;61346;48.930;2.266;2022-10-26T10:49:38;21.92;68.92
73149;SHT30;61346;48.930;2.266;2022-10-26T11:09:01;22.43;67.84
73149;SHT30;61346;48.930;2.266;2022-10-26T11:11:59;22.45;67.62
73149;SHT30;61346;48.930;2.266;2022-10-26T11:14:38;22.55;67.67
73149;SHT30;61346;48.930;2.266;2022-10-26T11:19:46;22.71;67.04
73149;SHT30;61346;48.930;2.266;2022-10-26T11:22:28;22.76;66.96
73149;SHT30;61346;48.930;2.266;2022-10-26T11:34:33;24.91;65.53
73149;SHT30;61346;48.930;2.266;2022-10-26T21:03:15;19.15;68.76
73149;SHT30;61346;48.930;2.266;2022-10-26T21:05:44;19.14;68.77
73149;SHT30;61346;48.930;2.266;2022-10-26T21:08:20;19.11;68.79
73149;SHT30;61346;48.930;2.266;2022-10-26T21:10:47;19.11;68.83
73149;SHT30;61346;48.930;2.266;2022-10-26T21:13:13;19.07;68.87
73149;SHT30;61346;48.930;2.266;2022-10-26T21:15:38;19.08;68.95
73149;SHT30;61346;48.930;2.266;2022-10-26T21:18:04;19.06;68.94
73149;SHT30;61346;48.930;2.266;2022-10-26T21:20:29;19.06;68.96
73149;SHT30;61346;48.930;2.266;2022-10-26T21:22:55;19.00;69.01
73149;SHT30;61346;48.930;2.266;2022-10-26T21:25:21;19.00;69.00
73149;SHT30;61346;48.930;2.266;2022-10-26T21:27:53;18.97;69.04
73149;SHT30;61346;48.930;2.266;2022-10-26T21:30:19;18.91;69.11
73149;SHT30;61346;48.930;2.266;2022-10-26T21:32:52;18.90;69.16
73149;SHT30;61346;48.930;2.266;2022-10-26T21:35:20;18.87;69.18
73149;SHT30;61346;48.930;2.266;2022-10-26T21:37:48;18.84;69.22
73149;SHT30;61346;48.930;2.266;2022-10-26T21:40:14;18.81;69.26
73149;SHT30;61346;48.930;2.266;2022-10-26T21:42:40;18.79;69.33
73149;SHT30;61346;48.930;2.266;2022-10-26T21:45:08;18.76;69.34
73149;SHT30;61346;48.930;2.266;2022-10-26T21:47:34;18.73;69.38
73149;SHT30;61346;48.930;2.266;2022-10-26T21:49:59;18.70;69.47
73149;SHT30;61346;48.930;2.266;2022-10-26T21:52:28;18.67;69.51
73149;SHT30;61346;48.930;2.266;2022-10-26T21:54:54;18.66;69.52
73149;SHT30;61346;48.930;2.266;2022-10-26T21:57:20;18.64;69.58
73149;SHT30;61346;48.930;2.266;2022-10-26T21:59:49;18.66;69.62
73149;SHT30;61346;48.930;2.266;2022-10-26T22:02:14;18.62;69.69
73149;SHT30;61346;48.930;2.266;2022-10-26T22:04:40;18.63;69.69
73149;SHT30;61346;48.930;2.266;2022-10-26T22:07:05;18.60;69.72
73149;SHT30;61346;48.930;2.266;2022-10-26T22:09:31;18.60;69.72
73149;SHT30;61346;48.930;2.266;2022-10-26T22:11:59;18.59;69.79
73149;SHT30;61346;48.930;2.266;2022-10-26T22:14:28;18.57;69.82
73149;SHT30;61346;48.930;2.266;2022-10-26T22:16:56;18.55;69.83
73149;SHT30;61346;48.930;2.266;2022-10-26T22:19:22;18.55;69.90
73149;SHT30;61346;48.930;2.266;2022-10-26T22:21:47;18.55;69.90
73149;SHT30;61346;48.930;2.266;2022-10-26T22:24:14;18.52;69.96
73149;SHT30;61346;48.930;2.266;2022-10-26T22:26:40;18.49;69.98
73149;SHT30;61346;48.930;2.266;2022-10-26T22:29:06;18.49;70.03
73149;SHT30;61346;48.930;2.266;2022-10-26T22:31:33;18.46;70.08
73149;SHT30;61346;48.930;2.266;2022-10-26T22:34:07;18.46;70.11
73149;SHT30;61346;48.930;2.266;2022-10-26T22:36:36;18.45;70.18
73149;SHT30;61346;48.930;2.266;2022-10-26T22:39:04;18.42;70.21
73149;SHT30;61346;48.930;2.266;2022-10-26T22:41:44;18.42;70.27
73149;SHT30;61346;48.930;2.266;2022-10-26T22:44:20;18.42;70.30
73149;SHT30;61346;48.930;2.266;2022-10-26T22:46:46;18.39;70.29
73149;SHT30;61346;48.930;2.266;2022-10-26T22:49:13;18.41;70.32
73149;SHT30;61346;48.930;2.266;2022-10-26T22:51:51;18.38;70.36
73149;SHT30;61346;48.930;2.266;2022-10-26T22:54:19;18.38;70.39
73149;SHT30;61346;48.930;2.266;2022-10-26T22:56:44;18.36;70.43
73149;SHT30;61346;48.930;2.266;2022-10-26T22:59:13;18.33;70.46
73149;SHT30;61346;48.930;2.266;2022-10-26T23:01:46;18.31;70.51
73149;SHT30;61346;48.930;2.266;2022-10-26T23:04:12;18.31;70.52
73149;SHT30;61346;48.930;2.266;2022-10-26T23:06:38;18.29;70.59
73149;SHT30;61346;48.930;2.266;2022-10-26T23:09:04;18.29;70.62
73149;SHT30;61346;48.930;2.266;2022-10-26T23:11:30;18.29;70.72
73149;SHT30;61346;48.930;2.266;2022-10-26T23:14:00;18.29;70.72
73149;SHT30;61346;48.930;2.266;2022-10-26T23:16:29;18.29;70.71
73149;SHT30;61346;48.930;2.266;2022-10-26T23:18:58;18.28;70.76
73149;SHT30;61346;48.930;2.266;2022-10-26T23:21:26;18.26;70.79
73149;SHT30;61346;48.930;2.266;2022-10-26T23:23:57;18.25;70.81
73149;SHT30;61346;48.930;2.266;2022-10-26T23:26:23;18.25;70.85
73149;SHT30;61346;48.930;2.266;2022-10-26T23:28:51;18.24;70.80
73149;SHT30;61346;48.930;2.266;2022-10-26T23:31:26;18.21;70.88
73149;SHT30;61346;48.930;2.266;2022-10-26T23:33:55;18.15;70.87
73149;SHT30;61346;48.930;2.266;2022-10-26T23:36:21;18.12;70.92
73149;SHT30;61346;48.930;2.266;2022-10-26T23:38:47;18.11;70.94
73149;SHT30;61346;48.930;2.266;2022-10-26T23:41:16;18.06;71.04
73149;SHT30;61346;48.930;2.266;2022-10-26T23:43:42;18.05;71.05
73149;SHT30;61346;48.930;2.266;2022-10-26T23:46:10;18.01;71.08
73149;SHT30;61346;48.930;2.266;2022-10-26T23:48:35;18.01;71.16
73149;SHT30;61346;48.930;2.266;2022-10-26T23:51:04;18.00;71.18
73149;SHT30;61346;48.930;2.266;2022-10-26T23:53:30;17.97;71.24
73149;SHT30;61346;48.930;2.266;2022-10-26T23:55:56;17.95;71.32
73149;SHT30;61346;48.930;2.266;2022-10-26T23:58:21;17.91;71.33
